createdAt,value
2018-09-23T00:01:40.202Z,6.70
2018-09-23T00:04:08.618Z,7.17
2018-09-23T00:06:37.744Z,7.30
2018-09-23T00:09:06.321Z,7.97
2018-09-23T00:11:35.529Z,6.70
2018-09-23T00:14:03.886Z,6.60
2018-09-23T00:16:32.210Z,6.73
2018-09-23T00:19:00.572Z,6.77
2018-09-23T00:21:29.177Z,6.13
2018-09-23T00:24:01.934Z,6.57
2018-09-23T00:26:30.997Z,6.23
2018-09-23T00:29:00.148Z,5.90
2018-09-23T00:31:29.059Z,6.90
2018-09-23T00:33:57.680Z,6.20
2018-09-23T00:36:26.104Z,6.53
2018-09-23T00:38:54.541Z,6.23
2018-09-23T00:41:23.337Z,6.60
2018-09-23T00:43:52.107Z,6.10
2018-09-23T00:46:21.238Z,5.87
2018-09-23T00:48:49.623Z,6.87
2018-09-23T00:51:17.972Z,6.77
2018-09-23T00:53:46.364Z,6.67
2018-09-23T00:56:14.691Z,7.17
2018-09-23T00:58:44.062Z,7.27
2018-09-23T01:01:12.469Z,7.30
2018-09-23T01:03:40.782Z,7.30
2018-09-23T01:06:09.159Z,7.63
2018-09-23T01:08:38.323Z,7.60
2018-09-23T01:11:06.752Z,7.30
2018-09-23T01:13:35.091Z,8.17
2018-09-23T01:16:03.504Z,7.47
2018-09-23T01:18:32.001Z,7.30
2018-09-23T01:21:00.330Z,7.73
2018-09-23T01:23:28.711Z,7.30
2018-09-23T01:25:57.164Z,7.53
2018-09-23T01:28:25.492Z,7.20
2018-09-23T01:30:54.630Z,8.07
2018-09-23T01:33:22.989Z,7.80
2018-09-23T01:35:51.324Z,7.83
2018-09-23T01:38:19.743Z,7.47
2018-09-23T01:40:48.119Z,8.50
2018-09-23T01:43:16.611Z,7.57
2018-09-23T01:45:44.953Z,7.90
2018-09-23T01:48:13.301Z,7.43
2018-09-23T01:50:41.650Z,7.57
2018-09-23T01:53:10.866Z,7.50
2018-09-23T01:55:39.203Z,7.10
2018-09-23T01:58:08.329Z,7.60
2018-09-23T02:00:36.693Z,7.27
2018-09-23T02:03:05.020Z,8.00
2018-09-23T02:05:33.378Z,6.57
2018-09-23T02:08:01.722Z,7.13
2018-09-23T02:10:30.940Z,7.13
2018-09-23T02:12:59.261Z,7.27
2018-09-23T02:15:27.728Z,7.33
2018-09-23T02:17:56.088Z,6.87
2018-09-23T02:20:24.441Z,6.93
2018-09-23T02:22:52.837Z,7.03
2018-09-23T02:25:21.337Z,7.53
2018-09-23T02:27:49.786Z,7.23
2018-09-23T02:30:18.154Z,6.70
2018-09-23T02:32:47.376Z,7.50
2018-09-23T02:35:15.836Z,6.37
2018-09-23T02:37:44.925Z,7.07
2018-09-23T02:40:13.298Z,6.67
2018-09-23T02:42:42.531Z,7.00
2018-09-23T02:45:10.901Z,6.33
2018-09-23T02:47:39.290Z,6.77
2018-09-23T02:50:08.140Z,5.83
2018-09-23T02:52:36.489Z,6.73
2018-09-23T02:55:04.824Z,6.03
2018-09-23T02:57:33.964Z,5.90
2018-09-23T03:00:02.324Z,6.43
2018-09-23T03:02:30.647Z,7.33
2018-09-23T03:04:58.993Z,6.83
2018-09-23T03:07:27.319Z,7.20
2018-09-23T03:09:55.989Z,7.30
2018-09-23T03:12:24.308Z,6.97
2018-09-23T03:14:52.675Z,7.30
2018-09-23T03:17:20.993Z,7.30
2018-09-23T03:19:49.314Z,7.30
2018-09-23T03:22:17.651Z,7.23
2018-09-23T03:24:45.992Z,6.87
2018-09-23T03:27:14.349Z,6.40
2018-09-23T03:29:42.675Z,7.93
2018-09-23T03:32:11.139Z,7.53
2018-09-23T03:34:40.230Z,6.73
2018-09-23T03:37:08.723Z,6.73
2018-09-23T03:39:37.042Z,6.70
2018-09-23T03:42:05.468Z,7.63
2018-09-23T03:44:33.860Z,7.67
2018-09-23T03:47:02.192Z,8.00
2018-09-23T03:49:30.541Z,7.80
2018-09-23T03:51:58.870Z,7.30
2018-09-23T03:54:27.987Z,7.47
2018-09-23T03:56:56.488Z,7.10
2018-09-23T03:59:24.819Z,7.53
2018-09-23T04:01:53.912Z,7.30
2018-09-23T04:04:22.422Z,7.23
2018-09-23T04:06:50.750Z,7.53
2018-09-23T04:09:19.181Z,7.03
2018-09-23T04:11:47.512Z,7.33
2018-09-23T04:14:15.838Z,7.30
2018-09-23T04:16:44.228Z,7.60
2018-09-23T04:19:12.609Z,7.47
2018-09-23T04:21:40.947Z,6.77
2018-09-23T04:24:10.043Z,7.30
2018-09-23T04:26:38.465Z,6.63
2018-09-23T04:29:07.041Z,7.00
2018-09-23T04:31:35.368Z,6.90
2018-09-23T04:34:03.694Z,6.73
2018-09-23T04:36:32.109Z,7.53
2018-09-23T04:39:00.490Z,6.83
2018-09-23T04:41:29.068Z,7.70
2018-09-23T04:43:57.385Z,7.03
2018-09-23T04:46:25.789Z,6.50
2018-09-23T04:48:54.875Z,7.10
2018-09-23T04:51:23.998Z,6.20
2018-09-23T04:53:52.318Z,6.97
2018-09-23T04:56:20.653Z,7.30
2018-09-23T04:58:48.970Z,5.80
2018-09-23T05:01:17.298Z,7.00
2018-09-23T05:03:45.650Z,7.03
2018-09-23T05:06:14.002Z,5.80
2018-09-23T05:08:42.326Z,7.07
2018-09-23T05:11:10.920Z,7.47
2018-09-23T05:13:39.236Z,8.47
2018-09-23T05:16:07.576Z,7.33
2018-09-23T05:18:35.896Z,6.90
2018-09-23T05:21:04.228Z,6.53
2018-09-23T05:23:32.831Z,6.60
2018-09-23T05:26:01.206Z,7.47
2018-09-23T05:28:29.522Z,6.87
2018-09-23T05:30:58.106Z,6.57
2018-09-23T05:33:26.399Z,6.77
2018-09-23T05:35:54.770Z,6.37
2018-09-23T05:38:23.154Z,7.07
2018-09-23T05:40:51.490Z,6.77
2018-09-23T05:43:19.825Z,6.17
2018-09-23T05:45:48.930Z,6.10
2018-09-23T05:48:18.110Z,6.33
2018-09-23T05:50:46.510Z,6.53
2018-09-23T05:53:15.731Z,6.13
2018-09-23T05:55:44.242Z,6.03
2018-09-23T05:58:12.678Z,5.53
2018-09-23T06:00:41.842Z,5.83
2018-09-23T06:03:10.278Z,5.47
2018-09-23T06:05:38.602Z,6.13
2018-09-23T06:08:06.966Z,5.80
2018-09-23T06:10:35.294Z,5.70
2018-09-23T06:13:03.686Z,5.40
2018-09-23T06:15:32.012Z,5.60
2018-09-23T06:18:00.356Z,5.20
2018-09-23T06:20:28.802Z,5.50
2018-09-23T06:22:57.888Z,4.73
2018-09-23T06:25:26.243Z,4.73
2018-09-23T06:27:54.557Z,5.30
2018-09-23T06:30:23.768Z,4.73
2018-09-23T06:32:52.154Z,4.70
2018-09-23T06:35:20.500Z,5.10
2018-09-23T06:37:48.812Z,5.23
2018-09-23T06:40:17.142Z,5.00
2018-09-23T06:42:45.508Z,4.87
2018-09-23T06:45:13.871Z,4.53
2018-09-23T06:47:42.206Z,4.27
2018-09-23T06:50:11.308Z,4.10
2018-09-23T06:52:40.648Z,4.07
2018-09-23T06:55:08.938Z,3.93
2018-09-23T06:57:37.382Z,3.70
2018-09-23T07:00:05.698Z,3.77
2018-09-23T07:02:34.040Z,4.03
2018-09-23T07:05:02.478Z,3.87
2018-09-23T07:07:31.482Z,3.10
2018-09-23T07:09:59.920Z,3.13
2018-09-23T07:12:28.239Z,3.50
2018-09-23T07:14:56.607Z,3.23
2018-09-23T07:17:25.083Z,2.93
2018-09-23T07:19:53.558Z,2.97
2018-09-23T07:22:21.884Z,3.43
2018-09-23T07:24:50.984Z,13.13
2018-09-23T07:27:19.314Z,7.07
2018-09-23T07:29:47.682Z,4.93
2018-09-23T07:32:15.987Z,4.07
2018-09-23T07:34:44.450Z,3.60
2018-09-23T07:37:12.922Z,3.80
2018-09-23T07:39:41.272Z,3.60
2018-09-23T07:42:09.632Z,3.53
2018-09-23T07:44:37.954Z,2.73
2018-09-23T07:47:06.291Z,6.50
2018-09-23T07:49:34.684Z,7.90
2018-09-23T07:52:03.245Z,4.93
2018-09-23T07:54:32.362Z,4.03
2018-09-23T07:57:00.913Z,3.73
2018-09-23T07:59:29.222Z,4.10
2018-09-23T08:01:57.570Z,3.83
2018-09-23T08:04:26.664Z,3.73
2018-09-23T08:06:55.096Z,3.70
2018-09-23T08:09:23.435Z,6.43
2018-09-23T08:11:52.554Z,5.90
2018-09-23T08:14:21.340Z,4.83
2018-09-23T08:16:49.199Z,4.40
2018-09-23T08:19:17.667Z,4.20
2018-09-23T08:21:45.894Z,4.67
2018-09-23T08:24:14.247Z,4.43
2018-09-23T08:26:42.749Z,4.40
2018-09-23T08:29:11.067Z,5.50
2018-09-23T08:31:39.417Z,14.07
2018-09-23T08:34:07.773Z,9.90
2018-09-23T08:36:36.109Z,7.00
2018-09-23T08:39:05.208Z,5.67
2018-09-23T08:41:33.553Z,5.63
2018-09-23T08:44:01.900Z,5.50
2018-09-23T08:46:30.254Z,5.43
2018-09-23T08:48:59.418Z,4.93
2018-09-23T08:51:27.871Z,5.07
2018-09-23T08:53:56.256Z,5.00
2018-09-23T08:56:24.829Z,5.67
2018-09-23T08:58:53.157Z,5.77
2018-09-23T09:01:21.574Z,5.87
2018-09-23T09:03:49.978Z,5.53
2018-09-23T09:06:18.441Z,6.30
2018-09-23T09:08:46.754Z,6.20
2018-09-23T09:11:15.225Z,6.13
2018-09-23T09:13:43.571Z,5.70
2018-09-23T09:16:11.902Z,12.90
2018-09-23T09:18:40.312Z,9.07
2018-09-23T09:21:08.593Z,6.10
2018-09-23T09:23:38.035Z,5.57
2018-09-23T09:26:06.361Z,5.20
2018-09-23T09:28:34.698Z,5.27
2018-09-23T09:31:03.035Z,6.10
2018-09-23T09:33:31.369Z,5.90
2018-09-23T09:35:59.813Z,6.30
2018-09-23T09:38:28.172Z,6.33
2018-09-23T09:40:56.482Z,6.50
2018-09-23T09:43:24.908Z,6.80
2018-09-23T09:45:53.249Z,24.47
2018-09-23T09:48:21.838Z,11.47
2018-09-23T09:50:50.219Z,7.33
2018-09-23T09:53:18.579Z,7.23
2018-09-23T09:55:46.899Z,6.43
2018-09-23T09:58:15.240Z,6.80
2018-09-23T10:00:44.057Z,6.37
2018-09-23T10:03:12.396Z,7.17
2018-09-23T10:05:41.642Z,7.00
2018-09-23T10:08:10.079Z,7.53
2018-09-23T10:10:39.021Z,8.70
2018-09-23T10:13:07.442Z,8.43
2018-09-23T10:15:35.845Z,7.20
2018-09-23T10:18:04.399Z,7.87
2018-09-23T10:20:33.495Z,8.47
2018-09-23T10:23:01.886Z,13.93
2018-09-23T10:25:30.981Z,18.33
2018-09-23T10:27:59.481Z,12.00
2018-09-23T10:30:27.825Z,9.40
2018-09-23T10:32:56.965Z,8.33
2018-09-23T10:35:25.307Z,8.33
2018-09-23T10:37:53.793Z,7.87
2018-09-23T10:40:22.143Z,8.80
2018-09-23T10:42:51.552Z,8.73
2018-09-23T10:45:20.707Z,7.90
2018-09-23T10:47:49.052Z,8.40
2018-09-23T10:50:17.405Z,8.87
2018-09-23T10:52:45.848Z,9.73
2018-09-23T10:55:14.187Z,9.30
2018-09-23T10:57:42.531Z,9.73
2018-09-23T11:00:10.961Z,10.00
2018-09-23T11:02:39.322Z,9.43
2018-09-23T11:05:08.415Z,9.90
2018-09-23T11:07:36.764Z,10.20
2018-09-23T11:10:05.125Z,9.87
2018-09-23T11:12:34.231Z,9.33
2018-09-23T11:15:02.922Z,9.33
2018-09-23T11:17:31.371Z,7.80
2018-09-23T11:19:59.722Z,8.40
2018-09-23T11:22:28.042Z,8.20
2018-09-23T11:24:56.482Z,8.43
2018-09-23T11:27:24.776Z,7.80
2018-09-23T11:29:53.119Z,9.13
2018-09-23T11:32:22.257Z,10.03
2018-09-23T11:34:50.627Z,16.80
2018-09-23T11:37:18.974Z,11.03
2018-09-23T11:39:47.430Z,10.40
2018-09-23T11:42:15.769Z,10.20
2018-09-23T11:44:44.102Z,9.50
2018-09-23T11:47:13.241Z,9.27
2018-09-23T11:49:41.580Z,10.17
2018-09-23T11:52:10.709Z,9.83
2018-09-23T11:54:39.201Z,9.80
2018-09-23T11:57:07.683Z,13.33
2018-09-23T11:59:36.023Z,13.20
2018-09-23T12:02:04.389Z,10.40
2018-09-23T12:04:32.757Z,10.40
2018-09-23T12:07:01.151Z,10.17
2018-09-23T12:09:29.513Z,12.30
2018-09-23T12:11:57.844Z,10.07
2018-09-23T12:14:26.202Z,9.90
2018-09-23T12:16:55.322Z,10.40
2018-09-23T12:19:23.713Z,9.53
2018-09-23T12:21:52.061Z,9.97
2018-09-23T12:24:21.181Z,10.33
2018-09-23T12:26:49.521Z,10.47
2018-09-23T12:29:17.936Z,10.37
2018-09-23T12:31:46.330Z,11.00
2018-09-23T12:34:14.823Z,9.97
2018-09-23T12:36:43.169Z,9.63
2018-09-23T12:39:12.259Z,10.13
2018-09-23T12:41:40.641Z,9.50
2018-09-23T12:44:08.981Z,9.53
2018-09-23T12:46:37.394Z,9.47
2018-09-23T12:49:05.737Z,9.03
2018-09-23T12:51:34.083Z,8.07
2018-09-23T12:54:02.411Z,9.77
2018-09-23T12:56:30.955Z,9.30
2018-09-23T12:58:59.271Z,8.40
2018-09-23T13:01:27.632Z,8.07
2018-09-23T13:03:56.077Z,7.70
2018-09-23T13:06:24.424Z,7.57
2018-09-23T13:08:53.527Z,7.40
2018-09-23T13:11:21.923Z,8.33
2018-09-23T13:13:50.343Z,8.90
2018-09-23T13:16:18.863Z,9.43
2018-09-23T13:18:48.055Z,8.53
2018-09-23T13:21:16.979Z,8.50
2018-09-23T13:23:45.548Z,8.77
2018-09-23T13:26:14.717Z,8.53
2018-09-23T13:28:43.055Z,9.47
2018-09-23T13:31:11.397Z,8.93
2018-09-23T13:33:40.527Z,9.37
2018-09-23T13:36:08.928Z,8.50
2018-09-23T13:38:37.230Z,8.37
2018-09-23T13:41:05.683Z,7.70
2018-09-23T13:43:34.036Z,8.73
2018-09-23T13:46:02.408Z,8.10
2018-09-23T13:48:30.990Z,7.60
2018-09-23T13:50:59.392Z,7.20
2018-09-23T13:53:27.713Z,6.13
2018-09-23T13:55:56.126Z,5.93
2018-09-23T13:58:24.581Z,6.03
2018-09-23T14:00:52.907Z,5.93
2018-09-23T14:03:21.247Z,5.63
2018-09-23T14:05:50.387Z,6.27
2018-09-23T14:08:18.886Z,6.33
2018-09-23T14:10:47.213Z,6.80
2018-09-23T14:13:15.567Z,7.00
2018-09-23T14:15:43.891Z,7.23
2018-09-23T14:18:12.262Z,7.27
2018-09-23T14:20:40.590Z,7.17
2018-09-23T14:23:09.027Z,8.13
2018-09-23T14:25:37.571Z,8.77
2018-09-23T14:28:05.918Z,7.47
2018-09-23T14:30:34.260Z,7.87
2018-09-23T14:33:02.620Z,8.47
2018-09-23T14:35:31.779Z,11.97
2018-09-23T14:38:00.139Z,9.87
2018-09-23T14:40:28.476Z,6.47
2018-09-23T14:42:57.572Z,5.00
2018-09-23T14:45:26.693Z,5.37
2018-09-23T14:47:55.044Z,4.87
2018-09-23T14:50:23.372Z,5.17
2018-09-23T14:52:51.696Z,6.00
2018-09-23T14:55:20.811Z,5.10
2018-09-23T14:57:49.154Z,5.30
2018-09-23T15:00:17.504Z,5.50
2018-09-23T15:02:45.853Z,4.83
2018-09-23T15:05:14.959Z,5.03
2018-09-23T15:07:43.350Z,4.73
2018-09-23T15:10:11.847Z,4.73
2018-09-23T15:12:40.225Z,5.53
2018-09-23T15:15:08.563Z,8.80
2018-09-23T15:17:36.997Z,9.77
2018-09-23T15:20:05.332Z,4.70
2018-09-23T15:22:33.694Z,5.43
2018-09-23T15:25:02.041Z,5.30
2018-09-23T15:27:30.491Z,5.00
2018-09-23T15:29:58.856Z,4.73
2018-09-23T15:32:27.300Z,4.87
2018-09-23T15:34:55.743Z,5.67
2018-09-23T15:37:24.266Z,4.63
2018-09-23T15:39:52.621Z,4.37
2018-09-23T15:42:21.028Z,3.73
2018-09-23T15:44:49.326Z,3.70
2018-09-23T15:47:17.665Z,4.10
2018-09-23T15:49:46.014Z,3.80
2018-09-23T15:52:14.417Z,3.97
2018-09-23T15:54:42.753Z,3.70
2018-09-23T15:57:11.089Z,3.30
2018-09-23T15:59:39.419Z,3.17
2018-09-23T16:02:07.783Z,3.77
2018-09-23T16:04:36.269Z,6.37
2018-09-23T16:07:04.635Z,3.93
2018-09-23T16:09:32.977Z,5.50
2018-09-23T16:12:01.298Z,3.73
2018-09-23T16:14:29.628Z,5.43
2018-09-23T16:16:58.093Z,4.50
2018-09-23T16:19:26.404Z,3.80
2018-09-23T16:21:54.784Z,3.77
2018-09-23T16:24:23.145Z,3.57
2018-09-23T16:26:51.496Z,4.23
2018-09-23T16:29:19.900Z,4.23
2018-09-23T16:31:48.258Z,4.40
2018-09-23T16:34:16.558Z,4.17
2018-09-23T16:36:45.007Z,3.80
2018-09-23T16:39:13.551Z,3.40
2018-09-23T16:41:41.990Z,3.73
2018-09-23T16:44:10.326Z,3.90
2018-09-23T16:46:38.706Z,3.60
2018-09-23T16:49:07.882Z,3.80
2018-09-23T16:51:36.210Z,3.60
2018-09-23T16:54:05.172Z,3.83
2018-09-23T16:56:33.522Z,3.87
2018-09-23T16:59:01.937Z,3.97
2018-09-23T17:01:30.265Z,3.97
2018-09-23T17:03:58.667Z,4.80
2018-09-23T17:06:26.980Z,3.20
2018-09-23T17:08:55.325Z,3.00
2018-09-23T17:11:23.654Z,3.07
2018-09-23T17:13:52.313Z,3.50
2018-09-23T17:16:20.769Z,3.47
2018-09-23T17:18:49.085Z,4.20
2018-09-23T17:21:17.454Z,4.43
2018-09-23T17:23:46.524Z,4.53
2018-09-23T17:26:14.849Z,5.07
2018-09-23T17:28:43.273Z,5.03
2018-09-23T17:31:12.417Z,6.00
2018-09-23T17:33:41.683Z,4.87
2018-09-23T17:36:10.016Z,6.30
2018-09-23T17:38:38.439Z,5.93
2018-09-23T17:41:06.776Z,5.20
2018-09-23T17:43:35.289Z,4.83
2018-09-23T17:46:03.822Z,5.10
2018-09-23T17:48:36.038Z,5.30
2018-09-23T17:51:05.318Z,4.60
2018-09-23T17:53:33.665Z,4.50
2018-09-23T17:56:01.983Z,4.17
2018-09-23T17:58:30.452Z,4.63
2018-09-23T18:00:58.856Z,3.60
2018-09-23T18:03:27.233Z,4.17
2018-09-23T18:05:55.573Z,4.03
2018-09-23T18:08:23.921Z,3.50
2018-09-23T18:10:53.003Z,3.50
2018-09-23T18:13:21.365Z,2.77
2018-09-23T18:15:49.946Z,3.00
2018-09-23T18:18:18.325Z,3.50
2018-09-23T18:20:46.639Z,3.13
2018-09-23T18:23:15.761Z,3.00
2018-09-23T18:25:44.133Z,2.80
2018-09-23T18:28:12.495Z,3.13
2018-09-23T18:30:41.614Z,3.07
2018-09-23T18:33:09.990Z,3.20
2018-09-23T18:35:39.116Z,2.93
2018-09-23T18:38:07.469Z,3.10
2018-09-23T18:40:35.804Z,3.10
2018-09-23T18:43:04.816Z,2.80
2018-09-23T18:45:33.952Z,2.80
2018-09-23T18:48:03.138Z,2.90
2018-09-23T18:50:31.484Z,2.87
2018-09-23T18:53:00.619Z,3.93
2018-09-23T18:55:43.983Z,3.90
2018-09-23T18:58:12.360Z,3.33
2018-09-23T19:00:40.799Z,3.90
2018-09-23T19:03:09.198Z,3.87
2018-09-23T19:05:37.545Z,4.13
2018-09-23T19:08:06.017Z,3.77
2018-09-23T19:10:34.408Z,3.63
2018-09-23T19:13:02.719Z,3.80
2018-09-23T19:15:31.113Z,3.30
2018-09-23T19:17:59.484Z,3.40
2018-09-23T19:20:27.812Z,3.70
2018-09-23T19:22:56.883Z,3.43
2018-09-23T19:25:25.317Z,8.13
2018-09-23T19:27:53.637Z,3.40
2018-09-23T19:30:22.128Z,3.77
2018-09-23T19:32:50.608Z,3.27
2018-09-23T19:35:19.037Z,2.80
2018-09-23T19:37:47.388Z,3.20
2018-09-23T19:40:15.771Z,2.97
2018-09-23T19:42:44.910Z,3.00
2018-09-23T19:45:13.229Z,2.70
2018-09-23T19:47:41.611Z,2.90
2018-09-23T19:50:09.964Z,2.90
2018-09-23T19:52:38.302Z,3.30
2018-09-23T19:55:06.920Z,3.37
2018-09-23T19:57:35.277Z,3.53
2018-09-23T20:00:03.634Z,3.87
2018-09-23T20:02:32.038Z,3.47
2018-09-23T20:05:00.406Z,3.77
2018-09-23T20:07:28.789Z,3.37
2018-09-23T20:09:57.103Z,3.83
2018-09-23T20:12:25.479Z,3.93
2018-09-23T20:14:53.821Z,3.43
2018-09-23T20:17:22.202Z,3.50
2018-09-23T20:19:50.724Z,3.50
2018-09-23T20:22:19.057Z,3.37
2018-09-23T20:24:47.566Z,3.30
2018-09-23T20:27:15.880Z,3.20
2018-09-23T20:29:44.338Z,3.33
2018-09-23T20:32:12.656Z,3.47
2018-09-23T20:34:41.779Z,3.10
2018-09-23T20:37:10.290Z,3.00
2018-09-23T20:39:38.749Z,2.93
2018-09-23T20:42:07.064Z,3.00
2018-09-23T20:44:35.590Z,2.70
2018-09-23T20:47:03.942Z,2.93
2018-09-23T20:49:32.555Z,2.90
2018-09-23T20:52:01.292Z,2.30
2018-09-23T20:54:29.672Z,2.10
2018-09-23T20:56:58.308Z,2.60
2018-09-23T20:59:26.763Z,2.43
2018-09-23T21:01:55.315Z,2.13
2018-09-23T21:04:23.616Z,2.10
2018-09-23T21:06:53.468Z,2.33
2018-09-23T21:09:22.104Z,2.33
2018-09-23T21:11:50.419Z,2.97
2018-09-23T21:14:19.521Z,4.40
2018-09-23T21:16:47.921Z,4.10
2018-09-23T21:19:16.515Z,3.87
2018-09-23T21:21:44.853Z,4.17
2018-09-23T21:24:13.873Z,4.90
2018-09-23T21:26:42.234Z,4.70
2018-09-23T21:29:11.466Z,4.63
2018-09-23T21:31:39.781Z,5.23
2018-09-23T21:34:08.181Z,4.63
2018-09-23T21:36:36.489Z,5.13
2018-09-23T21:39:05.033Z,5.70
2018-09-23T21:41:33.402Z,5.27
2018-09-23T21:44:01.782Z,4.67
2018-09-23T21:46:30.105Z,5.13
2018-09-23T21:48:58.475Z,5.10
2018-09-23T21:51:26.792Z,4.00
2018-09-23T21:53:55.755Z,4.40
2018-09-23T21:56:24.995Z,4.13
2018-09-23T21:58:53.606Z,3.40
2018-09-23T22:01:21.929Z,3.70
2018-09-23T22:03:50.367Z,3.30
2018-09-23T22:06:19.010Z,4.17
2018-09-23T22:08:47.504Z,3.97
2018-09-23T22:11:16.324Z,3.50
2018-09-23T22:13:44.694Z,3.47
2018-09-23T22:16:13.068Z,4.13
2018-09-23T22:18:41.987Z,3.80
2018-09-23T22:21:11.634Z,3.50
2018-09-23T22:23:40.207Z,3.40
2018-09-23T22:26:09.146Z,2.80
2018-09-23T22:28:37.454Z,3.10
2018-09-23T22:31:06.189Z,3.20
2018-09-23T22:33:35.541Z,3.03
2018-09-23T22:36:05.707Z,3.40
2018-09-23T22:38:36.284Z,3.33
2018-09-23T22:41:04.826Z,3.60
2018-09-23T22:43:34.579Z,2.70
2018-09-23T22:46:04.210Z,2.93
2018-09-23T22:48:33.625Z,3.13
2018-09-23T22:51:01.959Z,3.67
2018-09-23T22:53:31.329Z,3.00
2018-09-23T22:56:01.098Z,3.90
2018-09-23T22:58:30.933Z,3.00
2018-09-23T23:00:59.699Z,3.57
2018-09-23T23:03:28.481Z,2.60
2018-09-23T23:05:58.350Z,2.27
2018-09-23T23:08:27.646Z,2.57
2018-09-23T23:10:56.358Z,3.20
2018-09-23T23:13:24.909Z,3.53
2018-09-23T23:15:53.357Z,4.53
2018-09-23T23:18:22.164Z,3.93
2018-09-23T23:20:50.536Z,3.60
2018-09-23T23:23:18.912Z,4.07
2018-09-23T23:25:47.281Z,4.17
2018-09-23T23:28:15.666Z,3.43
2018-09-23T23:30:44.052Z,3.63
2018-09-23T23:33:12.412Z,3.30
2018-09-23T23:35:41.523Z,3.87
2018-09-23T23:38:10.102Z,3.03
2018-09-23T23:40:38.487Z,3.23
2018-09-23T23:43:06.857Z,2.30
2018-09-23T23:45:35.935Z,2.70
2018-09-23T23:48:05.073Z,2.73
2018-09-23T23:50:33.390Z,2.23
2018-09-23T23:53:01.718Z,3.17
2018-09-23T23:55:30.100Z,2.60
2018-09-23T23:57:58.421Z,2.30
